sensor_id;sensor_type;location;lat;lon;timestamp;pressure;altitude;pressure_sealevel;temperature;humidity
10310;BME280;5200;43.236;27.986;2022-07-05T00:01:06;100060.81;;;19.53;62.45
10310;BME280;5200;43.236;27.986;2022-07-05T00:03:33;100083.34;;;19.72;62.29
10310;BME280;5200;43.236;27.986;2022-07-05T00:06:00;100050.81;;;19.62;61.66
10310;BME280;5200;43.236;27.986;2022-07-05T00:08:27;100073.31;;;19.74;61.20
10310;BME280;5200;43.236;27.986;2022-07-05T00:10:54;100048.53;;;19.59;61.31
10310;BME280;5200;43.236;27.986;2022-07-05T00:13:21;100073.22;;;19.68;61.53
10310;BME280;5200;43.236;27.986;2022-07-05T00:15:48;100049.50;;;19.51;61.79
10310;BME280;5200;43.236;27.986;2022-07-05T00:18:17;100048.88;;;19.49;61.43
10310;BME280;5200;43.236;27.986;2022-07-05T00:20:44;100073.16;;;19.61;60.78
10310;BME280;5200;43.236;27.986;2022-07-05T00:23:11;100038.13;;;19.36;60.56
10310;BME280;5200;43.236;27.986;2022-07-05T00:25:38;100072.69;;;19.51;60.67
10310;BME280;5200;43.236;27.986;2022-07-05T00:28:05;100078.03;;;19.51;60.82
10310;BME280;5200;43.236;27.986;2022-07-05T00:30:32;100076.53;;;19.41;61.07
10310;BME280;5200;43.236;27.986;2022-07-05T00:32:59;100076.41;;;19.50;61.47
10310;BME280;5200;43.236;27.986;2022-07-05T00:35:28;100076.00;;;19.53;60.86
10310;BME280;5200;43.236;27.986;2022-07-05T00:37:55;100051.25;;;19.37;60.23
10310;BME280;5200;43.236;27.986;2022-07-05T00:40:22;100052.69;;;19.33;60.88
10310;BME280;5200;43.236;27.986;2022-07-05T00:42:49;100069.41;;;19.49;61.04
10310;BME280;5200;43.236;27.986;2022-07-05T00:45:15;100053.28;;;19.35;60.90
10310;BME280;5200;43.236;27.986;2022-07-05T00:47:42;100071.44;;;19.47;60.17
10310;BME280;5200;43.236;27.986;2022-07-05T00:50:09;100075.78;;;19.48;60.01
10310;BME280;5200;43.236;27.986;2022-07-05T00:52:38;100076.78;;;19.47;59.76
10310;BME280;5200;43.236;27.986;2022-07-05T00:55:06;100076.41;;;19.50;59.98
10310;BME280;5200;43.236;27.986;2022-07-05T00:57:33;100072.66;;;19.72;60.09
10310;BME280;5200;43.236;27.986;2022-07-05T01:00:01;100048.56;;;19.94;59.08
10310;BME280;5200;43.236;27.986;2022-07-05T01:02:28;100042.03;;;20.03;57.54
10310;BME280;5200;43.236;27.986;2022-07-05T01:04:55;100060.94;;;20.08;57.16
10310;BME280;5200;43.236;27.986;2022-07-05T01:07:22;100056.78;;;19.92;57.55
10310;BME280;5200;43.236;27.986;2022-07-05T01:09:52;100057.28;;;19.74;58.00
10310;BME280;5200;43.236;27.986;2022-07-05T01:12:19;100037.63;;;19.54;58.27
10310;BME280;5200;43.236;27.986;2022-07-05T01:14:47;100069.50;;;19.62;58.68
10310;BME280;5200;43.236;27.986;2022-07-05T01:17:15;100042.44;;;19.37;58.63
10310;BME280;5200;43.236;27.986;2022-07-05T01:19:42;100050.00;;;19.33;58.83
10310;BME280;5200;43.236;27.986;2022-07-05T01:22:17;100038.84;;;19.23;58.56
10310;BME280;5200;43.236;27.986;2022-07-05T01:24:47;100068.47;;;19.35;57.93
10310;BME280;5200;43.236;27.986;2022-07-05T01:27:15;100044.16;;;19.23;57.40
10310;BME280;5200;43.236;27.986;2022-07-05T01:29:42;100060.28;;;19.36;57.18
10310;BME280;5200;43.236;27.986;2022-07-05T01:32:09;100042.13;;;19.25;57.53
10310;BME280;5200;43.236;27.986;2022-07-05T01:34:37;100073.81;;;19.35;57.67
10310;BME280;5200;43.236;27.986;2022-07-05T01:37:05;100040.38;;;19.11;57.49
10310;BME280;5200;43.236;27.986;2022-07-05T01:39:33;100064.34;;;19.32;57.25
10310;BME280;5200;43.236;27.986;2022-07-05T01:42:02;100060.69;;;19.33;57.08
10310;BME280;5200;43.236;27.986;2022-07-05T01:44:30;100038.06;;;19.29;57.26
10310;BME280;5200;43.236;27.986;2022-07-05T01:47:03;100032.44;;;19.46;56.24
10310;BME280;5200;43.236;27.986;2022-07-05T01:49:34;100068.47;;;19.63;56.19
10310;BME280;5200;43.236;27.986;2022-07-05T01:52:08;100040.97;;;19.34;56.54
10310;BME280;5200;43.236;27.986;2022-07-05T01:54:35;100033.50;;;19.23;57.16
10310;BME280;5200;43.236;27.986;2022-07-05T01:57:05;100051.16;;;19.24;57.48
10310;BME280;5200;43.236;27.986;2022-07-05T01:59:33;100052.56;;;19.20;57.46
10310;BME280;5200;43.236;27.986;2022-07-05T02:02:00;100053.56;;;19.19;57.95
10310;BME280;5200;43.236;27.986;2022-07-05T02:04:28;100055.56;;;19.10;58.09
10310;BME280;5200;43.236;27.986;2022-07-05T02:06:55;100040.81;;;18.93;58.39
10310;BME280;5200;43.236;27.986;2022-07-05T02:09:23;100049.91;;;18.98;58.21
10310;BME280;5200;43.236;27.986;2022-07-05T02:11:50;100037.09;;;18.87;58.16
10310;BME280;5200;43.236;27.986;2022-07-05T02:14:19;100038.16;;;18.93;58.02
10310;BME280;5200;43.236;27.986;2022-07-05T02:16:46;100040.66;;;18.94;58.04
10310;BME280;5200;43.236;27.986;2022-07-05T02:19:13;100064.69;;;19.22;58.14
10310;BME280;5200;43.236;27.986;2022-07-05T02:21:41;100060.41;;;19.56;57.67
10310;BME280;5200;43.236;27.986;2022-07-05T02:24:08;100070.50;;;19.82;56.15
10310;BME280;5200;43.236;27.986;2022-07-05T02:26:35;100053.22;;;19.78;55.72
10310;BME280;5200;43.236;27.986;2022-07-05T02:29:03;100070.41;;;20.11;55.65
10310;BME280;5200;43.236;27.986;2022-07-05T02:31:32;100050.25;;;20.08;55.14
10310;BME280;5200;43.236;27.986;2022-07-05T02:33:59;100069.09;;;20.35;53.27
10310;BME280;5200;43.236;27.986;2022-07-05T02:36:26;100060.03;;;20.36;54.15
10310;BME280;5200;43.236;27.986;2022-07-05T02:38:53;100080.72;;;20.68;53.60
10310;BME280;5200;43.236;27.986;2022-07-05T02:41:20;100072.50;;;20.63;53.07
10310;BME280;5200;43.236;27.986;2022-07-05T02:43:47;100062.53;;;20.51;52.72
10310;BME280;5200;43.236;27.986;2022-07-05T02:46:14;100068.28;;;20.41;52.52
10310;BME280;5200;43.236;27.986;2022-07-05T02:48:43;100089.72;;;20.54;52.57
10310;BME280;5200;43.236;27.986;2022-07-05T02:51:10;100092.84;;;20.58;52.43
10310;BME280;5200;43.236;27.986;2022-07-05T02:53:37;100067.13;;;20.57;52.10
10310;BME280;5200;43.236;27.986;2022-07-05T02:56:04;100084.91;;;20.91;51.70
10310;BME280;5200;43.236;27.986;2022-07-05T02:58:31;100089.03;;;21.20;50.73
10310;BME280;5200;43.236;27.986;2022-07-05T03:00:58;100070.56;;;21.45;50.47
10310;BME280;5200;43.236;27.986;2022-07-05T03:03:25;100086.50;;;21.99;49.62
10310;BME280;5200;43.236;27.986;2022-07-05T03:05:53;100062.75;;;22.22;48.65
10310;BME280;5200;43.236;27.986;2022-07-05T03:08:20;100065.78;;;22.77;47.77
10310;BME280;5200;43.236;27.986;2022-07-05T03:10:47;100074.66;;;23.35;46.53
10310;BME280;5200;43.236;27.986;2022-07-05T03:13:14;100079.25;;;23.78;45.73
10310;BME280;5200;43.236;27.986;2022-07-05T03:15:41;100058.94;;;24.19;44.84
10310;BME280;5200;43.236;27.986;2022-07-05T03:18:09;100085.88;;;24.79;43.95
10310;BME280;5200;43.236;27.986;2022-07-05T03:20:36;100090.72;;;25.43;42.97
10310;BME280;5200;43.236;27.986;2022-07-05T03:23:04;100077.94;;;25.85;42.11
10310;BME280;5200;43.236;27.986;2022-07-05T03:25:31;100086.59;;;26.51;41.14
10310;BME280;5200;43.236;27.986;2022-07-05T03:27:58;100069.44;;;26.86;39.87
10310;BME280;5200;43.236;27.986;2022-07-05T03:30:25;100081.16;;;27.26;38.89
10310;BME280;5200;43.236;27.986;2022-07-05T03:32:52;100056.59;;;27.44;39.02
10310;BME280;5200;43.236;27.986;2022-07-05T03:35:19;100077.63;;;27.98;38.59
10310;BME280;5200;43.236;27.986;2022-07-05T03:37:46;100070.16;;;28.27;37.66
10310;BME280;5200;43.236;27.986;2022-07-05T03:40:14;100075.91;;;28.85;37.02
10310;BME280;5200;43.236;27.986;2022-07-05T03:42:41;100075.00;;;29.34;36.28
10310;BME280;5200;43.236;27.986;2022-07-05T03:45:09;100062.81;;;29.74;35.44
10310;BME280;5200;43.236;27.986;2022-07-05T03:47:36;100083.13;;;30.29;34.79
10310;BME280;5200;43.236;27.986;2022-07-05T03:50:04;100070.22;;;30.82;33.76
10310;BME280;5200;43.236;27.986;2022-07-05T03:52:31;100067.50;;;31.23;32.74
10310;BME280;5200;43.236;27.986;2022-07-05T03:54:58;100063.69;;;31.34;32.61
10310;BME280;5200;43.236;27.986;2022-07-05T03:57:27;100067.28;;;31.40;32.76
10310;BME280;5200;43.236;27.986;2022-07-05T03:59:54;100065.00;;;31.68;32.37
10310;BME280;5200;43.236;27.986;2022-07-05T04:02:20;100071.72;;;32.06;31.80
10310;BME280;5200;43.236;27.986;2022-07-05T04:04:47;100078.88;;;32.41;32.01
10310;BME280;5200;43.236;27.986;2022-07-05T04:07:14;100073.50;;;32.76;31.23
10310;BME280;5200;43.236;27.986;2022-07-05T04:09:41;100078.75;;;33.06;30.85
10310;BME280;5200;43.236;27.986;2022-07-05T04:12:09;100072.84;;;33.29;30.73
10310;BME280;5200;43.236;27.986;2022-07-05T04:14:37;100079.97;;;33.48;31.42
10310;BME280;5200;43.236;27.986;2022-07-05T04:17:04;100080.16;;;33.62;31.40
10310;BME280;5200;43.236;27.986;2022-07-05T04:19:31;100071.22;;;33.81;29.38
10310;BME280;5200;43.236;27.986;2022-07-05T04:21:58;100071.22;;;33.81;28.77
10310;BME280;5200;43.236;27.986;2022-07-05T04:24:25;100071.53;;;33.98;28.53
10310;BME280;5200;43.236;27.986;2022-07-05T04:26:55;100072.72;;;34.16;28.05
10310;BME280;5200;43.236;27.986;2022-07-05T04:29:22;100057.75;;;34.14;28.44
10310;BME280;5200;43.236;27.986;2022-07-05T04:31:50;100069.22;;;33.86;30.17
10310;BME280;5200;43.236;27.986;2022-07-05T04:34:17;100050.53;;;33.75;30.51
10310;BME280;5200;43.236;27.986;2022-07-05T04:36:44;100056.00;;;33.75;30.35
10310;BME280;5200;43.236;27.986;2022-07-05T04:39:11;100059.38;;;33.66;30.53
10310;BME280;5200;43.236;27.986;2022-07-05T04:41:38;100053.19;;;33.56;30.36
10310;BME280;5200;43.236;27.986;2022-07-05T04:44:05;100030.34;;;33.22;29.96
10310;BME280;5200;43.236;27.986;2022-07-05T04:46:32;100061.94;;;33.29;30.45
10310;BME280;5200;43.236;27.986;2022-07-05T04:49:00;100060.53;;;33.60;29.78
10310;BME280;5200;43.236;27.986;2022-07-05T04:51:27;100061.66;;;33.59;30.21
10310;BME280;5200;43.236;27.986;2022-07-05T04:53:55;100059.97;;;33.63;31.13
10310;BME280;5200;43.236;27.986;2022-07-05T04:56:22;100044.00;;;33.46;31.81
10310;BME280;5200;43.236;27.986;2022-07-05T04:58:49;100075.09;;;33.75;33.10
10310;BME280;5200;43.236;27.986;2022-07-05T05:01:16;100055.53;;;33.67;33.32
10310;BME280;5200;43.236;27.986;2022-07-05T05:03:43;100061.69;;;33.54;33.94
10310;BME280;5200;43.236;27.986;2022-07-05T05:06:12;100063.88;;;33.52;35.08
10310;BME280;5200;43.236;27.986;2022-07-05T05:08:39;100066.44;;;33.67;35.36
10310;BME280;5200;43.236;27.986;2022-07-05T05:11:07;100056.13;;;33.64;35.02
10310;BME280;5200;43.236;27.986;2022-07-05T05:13:34;100051.72;;;33.68;34.24
10310;BME280;5200;43.236;27.986;2022-07-05T05:16:01;100049.34;;;33.62;34.44
10310;BME280;5200;43.236;27.986;2022-07-05T05:18:28;100068.03;;;33.74;34.81
10310;BME280;5200;43.236;27.986;2022-07-05T05:20:55;100056.72;;;33.61;34.84
10310;BME280;5200;43.236;27.986;2022-07-05T05:23:24;100079.84;;;33.35;35.49
10310;BME280;5200;43.236;27.986;2022-07-05T05:25:51;100061.94;;;33.29;35.64
10310;BME280;5200;43.236;27.986;2022-07-05T05:28:18;100075.63;;;33.23;35.77
10310;BME280;5200;43.236;27.986;2022-07-05T05:30:45;100046.00;;;33.12;35.78
10310;BME280;5200;43.236;27.986;2022-07-05T05:33:12;100057.69;;;33.41;35.84
10310;BME280;5200;43.236;27.986;2022-07-05T05:35:39;100053.84;;;33.47;35.33
10310;BME280;5200;43.236;27.986;2022-07-05T05:38:06;100066.69;;;33.71;35.07
10310;BME280;5200;43.236;27.986;2022-07-05T05:40:34;100067.63;;;33.61;34.72
10310;BME280;5200;43.236;27.986;2022-07-05T05:43:03;100084.06;;;33.51;34.29
10310;BME280;5200;43.236;27.986;2022-07-05T05:45:30;100071.66;;;33.40;33.82
10310;BME280;5200;43.236;27.986;2022-07-05T05:47:58;100075.94;;;33.46;33.05
10310;BME280;5200;43.236;27.986;2022-07-05T05:50:26;100059.38;;;33.66;32.94
10310;BME280;5200;43.236;27.986;2022-07-05T05:52:54;100071.50;;;34.03;32.80
10310;BME280;5200;43.236;27.986;2022-07-05T05:55:22;100063.81;;;34.05;32.48
10310;BME280;5200;43.236;27.986;2022-07-05T05:57:51;100064.72;;;34.01;32.24
10310;BME280;5200;43.236;27.986;2022-07-05T06:00:19;100074.00;;;34.00;32.09
10310;BME280;5200;43.236;27.986;2022-07-05T06:02:47;100066.31;;;34.02;32.26
10310;BME280;5200;43.236;27.986;2022-07-05T06:05:15;100063.31;;;34.03;32.51
10310;BME280;5200;43.236;27.986;2022-07-05T06:07:44;100064.88;;;34.09;33.11
10310;BME280;5200;43.236;27.986;2022-07-05T06:10:15;100072.59;;;34.02;32.69
10310;BME280;5200;43.236;27.986;2022-07-05T06:12:42;100066.97;;;33.94;33.28
10310;BME280;5200;43.236;27.986;2022-07-05T06:15:11;100049.97;;;33.78;33.61
10310;BME280;5200;43.236;27.986;2022-07-05T06:17:38;100062.41;;;33.89;32.40
10310;BME280;5200;43.236;27.986;2022-07-05T06:20:07;100071.66;;;34.12;32.65
10310;BME280;5200;43.236;27.986;2022-07-05T06:22:34;100073.44;;;34.22;32.86
10310;BME280;5200;43.236;27.986;2022-07-05T06:25:02;100068.97;;;34.31;32.37
10310;BME280;5200;43.236;27.986;2022-07-05T06:27:29;100067.78;;;34.37;31.80
10310;BME280;5200;43.236;27.986;2022-07-05T06:29:56;100066.66;;;34.19;32.08
10310;BME280;5200;43.236;27.986;2022-07-05T06:32:24;100073.06;;;34.09;32.38
10310;BME280;5200;43.236;27.986;2022-07-05T06:34:51;100070.97;;;34.01;30.29
10310;BME280;5200;43.236;27.986;2022-07-05T06:37:18;100067.13;;;34.02;30.08
10310;BME280;5200;43.236;27.986;2022-07-05T06:39:45;100049.31;;;33.86;30.27
10310;BME280;5200;43.236;27.986;2022-07-05T06:42:12;100064.81;;;33.90;30.26
10310;BME280;5200;43.236;27.986;2022-07-05T06:44:39;100044.88;;;33.71;30.11
10310;BME280;5200;43.236;27.986;2022-07-05T06:47:06;100063.50;;;33.64;30.83
10310;BME280;5200;43.236;27.986;2022-07-05T06:49:34;100070.75;;;33.74;32.48
10310;BME280;5200;43.236;27.986;2022-07-05T06:52:01;100049.09;;;33.58;31.54
10310;BME280;5200;43.236;27.986;2022-07-05T06:54:28;100069.28;;;33.57;30.51
10310;BME280;5200;43.236;27.986;2022-07-05T06:56:55;100072.56;;;33.59;30.93
10310;BME280;5200;43.236;27.986;2022-07-05T06:59:22;100065.47;;;33.58;30.76
10310;BME280;5200;43.236;27.986;2022-07-05T07:01:49;100060.53;;;33.60;30.61
10310;BME280;5200;43.236;27.986;2022-07-05T07:04:16;100080.50;;;34.04;31.11
10310;BME280;5200;43.236;27.986;2022-07-05T07:06:45;100075.38;;;33.97;29.99
10310;BME280;5200;43.236;27.986;2022-07-05T07:09:12;100071.16;;;33.86;29.65
10310;BME280;5200;43.236;27.986;2022-07-05T07:11:43;100069.66;;;33.99;29.38
10310;BME280;5200;43.236;27.986;2022-07-05T07:14:11;100074.41;;;34.12;28.91
10310;BME280;5200;43.236;27.986;2022-07-05T07:16:38;100080.63;;;34.18;28.90
10310;BME280;5200;43.236;27.986;2022-07-05T07:19:05;100083.00;;;34.24;29.35
10310;BME280;5200;43.236;27.986;2022-07-05T07:21:32;100084.56;;;34.06;30.04
10310;BME280;5200;43.236;27.986;2022-07-05T07:24:00;100068.06;;;33.93;29.52
10310;BME280;5200;43.236;27.986;2022-07-05T07:26:27;100072.56;;;33.59;30.05
10310;BME280;5200;43.236;27.986;2022-07-05T07:28:54;100091.13;;;33.28;28.42
10310;BME280;5200;43.236;27.986;2022-07-05T07:31:21;100095.41;;;33.00;27.83
10310;BME280;5200;43.236;27.986;2022-07-05T07:33:48;100065.69;;;32.64;27.31
10310;BME280;5200;43.236;27.986;2022-07-05T07:36:15;100096.53;;;32.94;27.10
10310;BME280;5200;43.236;27.986;2022-07-05T07:38:42;100097.66;;;32.88;27.54
10310;BME280;5200;43.236;27.986;2022-07-05T07:41:10;100085.59;;;32.99;26.93
10310;BME280;5200;43.236;27.986;2022-07-05T07:43:37;100094.50;;;33.15;26.43
10310;BME280;5200;43.236;27.986;2022-07-05T07:46:04;100089.78;;;33.20;26.44
10310;BME280;5200;43.236;27.986;2022-07-05T07:48:31;100079.88;;;33.00;27.00
10310;BME280;5200;43.236;27.986;2022-07-05T07:50:58;100110.78;;;32.80;27.45
10310;BME280;5200;43.236;27.986;2022-07-05T07:53:25;100100.13;;;32.39;28.39
10310;BME280;5200;43.236;27.986;2022-07-05T07:55:52;100108.34;;;32.34;28.01
10310;BME280;5200;43.236;27.986;2022-07-05T07:58:20;100118.69;;;32.32;27.88
10310;BME280;5200;43.236;27.986;2022-07-05T08:00:47;100114.72;;;32.64;27.62
10310;BME280;5200;43.236;27.986;2022-07-05T08:03:14;100111.91;;;32.79;28.12
10310;BME280;5200;43.236;27.986;2022-07-05T08:05:41;100114.28;;;32.91;27.73
10310;BME280;5200;43.236;27.986;2022-07-05T08:08:08;100117.16;;;33.10;28.37
10310;BME280;5200;43.236;27.986;2022-07-05T08:10:35;100116.25;;;33.20;27.98
10310;BME280;5200;43.236;27.986;2022-07-05T08:13:02;100114.78;;;33.33;28.10
10310;BME280;5200;43.236;27.986;2022-07-05T08:15:30;100091.34;;;33.32;27.78
10310;BME280;5200;43.236;27.986;2022-07-05T08:17:57;100115.50;;;33.43;27.47
10310;BME280;5200;43.236;27.986;2022-07-05T08:20:41;100113.78;;;33.23;27.87
10310;BME280;5200;43.236;27.986;2022-07-05T08:23:26;100096.22;;;33.00;27.74
10310;BME280;5200;43.236;27.986;2022-07-05T08:25:53;100099.22;;;32.99;27.47
10310;BME280;5200;43.236;27.986;2022-07-05T08:28:20;100113.16;;;32.97;27.48
10310;BME280;5200;43.236;27.986;2022-07-05T08:30:48;100116.16;;;32.96;28.23
10310;BME280;5200;43.236;27.986;2022-07-05T08:33:15;100116.22;;;32.85;27.99
10310;BME280;5200;43.236;27.986;2022-07-05T08:35:42;100106.50;;;32.74;28.62
10310;BME280;5200;43.236;27.986;2022-07-05T08:38:09;100116.72;;;32.93;28.15
10310;BME280;5200;43.236;27.986;2022-07-05T08:40:39;100119.03;;;33.15;27.91
10310;BME280;5200;43.236;27.986;2022-07-05T08:43:10;100114.00;;;32.93;27.90
10310;BME280;5200;43.236;27.986;2022-07-05T08:45:38;100112.78;;;32.70;28.62
10310;BME280;5200;43.236;27.986;2022-07-05T08:48:09;100125.72;;;32.43;28.71
10310;BME280;5200;43.236;27.986;2022-07-05T08:50:37;100126.59;;;32.23;29.72
10310;BME280;5200;43.236;27.986;2022-07-05T08:53:06;100122.63;;;31.90;30.02
10310;BME280;5200;43.236;27.986;2022-07-05T08:55:33;100128.06;;;31.85;31.29
10310;BME280;5200;43.236;27.986;2022-07-05T08:58:01;100121.88;;;31.38;31.44
10310;BME280;5200;43.236;27.986;2022-07-05T09:00:28;100127.03;;;31.25;32.51
10310;BME280;5200;43.236;27.986;2022-07-05T09:02:56;100127.56;;;31.06;33.35
10310;BME280;5200;43.236;27.986;2022-07-05T09:05:25;100122.16;;;31.16;33.67
10310;BME280;5200;43.236;27.986;2022-07-05T09:07:58;100122.97;;;31.48;33.83
10310;BME280;5200;43.236;27.986;2022-07-05T09:10:27;100110.72;;;31.55;33.32
10310;BME280;5200;43.236;27.986;2022-07-05T09:12:54;100133.84;;;31.53;33.15
10310;BME280;5200;43.236;27.986;2022-07-05T09:15:21;100122.44;;;31.46;34.12
10310;BME280;5200;43.236;27.986;2022-07-05T09:17:48;100127.03;;;31.25;34.27
10310;BME280;5200;43.236;27.986;2022-07-05T09:20:16;100133.56;;;31.29;34.80
10310;BME280;5200;43.236;27.986;2022-07-05T09:22:50;100106.38;;;31.08;34.10
10310;BME280;5200;43.236;27.986;2022-07-05T09:25:25;100111.00;;;31.03;32.51
10310;BME280;5200;43.236;27.986;2022-07-05T09:27:55;100112.63;;;30.99;32.91
10310;BME280;5200;43.236;27.986;2022-07-05T09:30:26;100128.13;;;30.93;32.18
10310;BME280;5200;43.236;27.986;2022-07-05T09:33:04;100109.59;;;30.69;35.21
10310;BME280;5200;43.236;27.986;2022-07-05T09:35:32;100126.44;;;30.82;34.13
10310;BME280;5200;43.236;27.986;2022-07-05T09:38:02;100125.59;;;30.76;34.27
10310;BME280;5200;43.236;27.986;2022-07-05T09:40:30;100110.66;;;30.73;34.10
10310;BME280;5200;43.236;27.986;2022-07-05T09:43:12;100117.19;;;30.67;32.54
10310;BME280;5200;43.236;27.986;2022-07-05T09:45:40;100122.31;;;30.64;34.11
10310;BME280;5200;43.236;27.986;2022-07-05T09:48:16;100120.94;;;30.61;34.18
10310;BME280;5200;43.236;27.986;2022-07-05T09:50:43;100110.59;;;30.43;32.91
10310;BME280;5200;43.236;27.986;2022-07-05T09:53:12;100127.41;;;30.40;32.06
10310;BME280;5200;43.236;27.986;2022-07-05T09:55:39;100117.91;;;30.42;33.67
10310;BME280;5200;43.236;27.986;2022-07-05T09:58:06;100124.94;;;30.38;35.42
10310;BME280;5200;43.236;27.986;2022-07-05T10:00:33;100096.19;;;30.37;35.35
10310;BME280;5200;43.236;27.986;2022-07-05T10:03:00;100121.50;;;30.58;36.82
10310;BME280;5200;43.236;27.986;2022-07-05T10:05:29;100122.84;;;30.55;35.76
10310;BME280;5200;43.236;27.986;2022-07-05T10:07:58;100122.59;;;30.67;35.60
10310;BME280;5200;43.236;27.986;2022-07-05T10:10:28;100110.66;;;30.63;35.46
10310;BME280;5200;43.236;27.986;2022-07-05T10:12:57;100119.28;;;30.45;36.89
10310;BME280;5200;43.236;27.986;2022-07-05T10:15:27;100114.81;;;30.18;37.60
10310;BME280;5200;43.236;27.986;2022-07-05T10:17:58;100100.66;;;30.06;35.34
10310;BME280;5200;43.236;27.986;2022-07-05T10:20:30;100113.25;;;30.27;35.70
10310;BME280;5200;43.236;27.986;2022-07-05T10:23:01;100116.44;;;30.19;35.46
10310;BME280;5200;43.236;27.986;2022-07-05T10:25:30;100121.31;;;30.17;34.44
10310;BME280;5200;43.236;27.986;2022-07-05T10:27:58;100094.94;;;30.02;35.06
10310;BME280;5200;43.236;27.986;2022-07-05T10:30:25;100117.22;;;30.14;35.17
10310;BME280;5200;43.236;27.986;2022-07-05T10:32:52;100091.41;;;29.97;34.57
10310;BME280;5200;43.236;27.986;2022-07-05T10:35:21;100089.75;;;29.96;35.37
10310;BME280;5200;43.236;27.986;2022-07-05T10:37:48;100094.72;;;30.19;34.94
10310;BME280;5200;43.236;27.986;2022-07-05T10:40:16;100092.63;;;30.26;33.56
10310;BME280;5200;43.236;27.986;2022-07-05T10:42:48;100092.03;;;30.24;34.25
10310;BME280;5200;43.236;27.986;2022-07-05T10:45:25;100088.78;;;30.22;35.19
10310;BME280;5200;43.236;27.986;2022-07-05T10:48:11;100108.91;;;30.26;35.78
10310;BME280;5200;43.236;27.986;2022-07-05T10:50:43;100092.03;;;30.24;35.14
10310;BME280;5200;43.236;27.986;2022-07-05T10:53:10;100064.50;;;29.90;33.72
10310;BME280;5200;43.236;27.986;2022-07-05T10:55:51;100099.56;;;30.07;33.87
10310;BME280;5200;43.236;27.986;2022-07-05T10:58:24;100108.72;;;29.96;33.66
10310;BME280;5200;43.236;27.986;2022-07-05T11:04:26;100098.09;;;29.84;32.86
10310;BME280;5200;43.236;27.986;2022-07-05T11:06:56;100083.56;;;29.58;31.97
10310;BME280;5200;43.236;27.986;2022-07-05T11:09:23;100093.31;;;29.59;31.64
10310;BME280;5200;43.236;27.986;2022-07-05T11:12:06;100103.81;;;29.45;32.54
10310;BME280;5200;43.236;27.986;2022-07-05T11:14:36;100083.91;;;29.29;32.91
10310;BME280;5200;43.236;27.986;2022-07-05T11:17:20;100095.38;;;29.41;32.90
10310;BME280;5200;43.236;27.986;2022-07-05T11:20:11;100092.94;;;29.40;33.82
10310;BME280;5200;43.236;27.986;2022-07-05T11:22:40;100080.16;;;29.35;34.87
10310;BME280;5200;43.236;27.986;2022-07-05T11:27:36;100074.19;;;29.33;37.08
10310;BME280;5200;43.236;27.986;2022-07-05T11:30:21;100088.22;;;29.30;36.84
10310;BME280;5200;43.236;27.986;2022-07-05T11:32:49;100075.28;;;29.05;35.89
10310;BME280;5200;43.236;27.986;2022-07-05T11:35:18;100093.81;;;29.18;35.45
10310;BME280;5200;43.236;27.986;2022-07-05T11:37:58;100095.81;;;29.28;37.56
10310;BME280;5200;43.236;27.986;2022-07-05T11:40:29;100071.00;;;29.09;38.49
10310;BME280;5200;43.236;27.986;2022-07-05T11:42:57;100070.50;;;29.12;37.58
10310;BME280;5200;43.236;27.986;2022-07-05T11:45:26;100088.72;;;29.22;36.58
10310;BME280;5200;43.236;27.986;2022-07-05T11:47:54;100082.75;;;29.20;36.36
10310;BME280;5200;43.236;27.986;2022-07-05T11:50:28;100091.38;;;29.12;35.68
10310;BME280;5200;43.236;27.986;2022-07-05T11:52:55;100077.66;;;28.96;35.70
10310;BME280;5200;43.236;27.986;2022-07-05T11:55:25;100065.06;;;29.07;37.21
10310;BME280;5200;43.236;27.986;2022-07-05T11:57:53;100080.34;;;28.96;38.26
10310;BME280;5200;43.236;27.986;2022-07-05T12:00:33;100069.22;;;28.93;38.76
10310;BME280;5200;43.236;27.986;2022-07-05T12:03:10;100058.53;;;28.81;39.13
10310;BME280;5200;43.236;27.986;2022-07-05T12:05:38;100072.56;;;28.73;38.16
10310;BME280;5200;43.236;27.986;2022-07-05T12:08:06;100046.47;;;28.61;36.92
10310;BME280;5200;43.236;27.986;2022-07-05T12:10:33;100065.53;;;28.72;37.37
10310;BME280;5200;43.236;27.986;2022-07-05T12:13:14;100039.91;;;28.57;36.59
10310;BME280;5200;43.236;27.986;2022-07-05T12:15:42;100062.94;;;28.87;36.23
10310;BME280;5200;43.236;27.986;2022-07-05T12:18:12;100063.34;;;29.01;35.63
10310;BME280;5200;43.236;27.986;2022-07-05T12:20:41;100040.84;;;29.00;35.68
10310;BME280;5200;43.236;27.986;2022-07-05T12:23:08;100060.88;;;28.99;37.96
10310;BME280;5200;43.236;27.986;2022-07-05T12:25:35;100029.66;;;28.59;37.64
10310;BME280;5200;43.236;27.986;2022-07-05T12:28:03;100053.78;;;28.61;36.29
10310;BME280;5200;43.236;27.986;2022-07-05T12:30:32;100049.69;;;28.58;38.27
10310;BME280;5200;43.236;27.986;2022-07-05T12:33:02;100029.84;;;28.53;38.08
10310;BME280;5200;43.236;27.986;2022-07-05T12:35:34;100045.69;;;28.66;36.92
10310;BME280;5200;43.236;27.986;2022-07-05T12:38:04;100045.34;;;28.57;36.52
10310;BME280;5200;43.236;27.986;2022-07-05T12:40:31;100048.31;;;28.56;36.31
10310;BME280;5200;43.236;27.986;2022-07-05T12:43:03;100056.78;;;28.64;36.04
10310;BME280;5200;43.236;27.986;2022-07-05T12:45:30;100033.09;;;28.28;35.00
10310;BME280;5200;43.236;27.986;2022-07-05T12:48:01;100034.91;;;28.22;35.58
10310;BME280;5200;43.236;27.986;2022-07-05T12:50:29;100044.75;;;28.28;38.40
10310;BME280;5200;43.236;27.986;2022-07-05T12:53:02;100045.88;;;28.32;38.08
10310;BME280;5200;43.236;27.986;2022-07-05T12:55:58;100018.28;;;28.08;38.90
10310;BME280;5200;43.236;27.986;2022-07-05T12:58:47;100044.00;;;28.11;38.03
10310;BME280;5200;43.236;27.986;2022-07-05T13:01:22;100042.00;;;28.01;37.02
10310;BME280;5200;43.236;27.986;2022-07-05T13:04:02;100030.06;;;27.97;37.87